createdAt,value
2018-07-07T00:01:16.717Z,19.40
2018-07-07T00:03:47.305Z,18.33
2018-07-07T00:06:17.761Z,19.13
2018-07-07T00:08:48.733Z,18.60
2018-07-07T00:11:19.152Z,18.33
2018-07-07T00:13:49.910Z,17.83
2018-07-07T00:16:20.525Z,17.03
2018-07-07T00:18:51.117Z,18.10
2018-07-07T00:21:21.991Z,16.57
2018-07-07T00:23:52.744Z,16.07
2018-07-07T00:26:23.352Z,15.77
2018-07-07T00:28:54.283Z,16.50
2018-07-07T00:31:24.963Z,16.20
2018-07-07T00:33:54.906Z,16.70
2018-07-07T00:36:25.381Z,17.87
2018-07-07T00:38:55.947Z,17.27
2018-07-07T00:41:26.431Z,17.03
2018-07-07T00:43:57.064Z,17.73
2018-07-07T00:46:27.724Z,18.10
2018-07-07T00:48:57.923Z,18.30
2018-07-07T00:51:28.550Z,19.67
2018-07-07T00:53:58.995Z,19.20
2018-07-07T00:56:29.616Z,18.63
2018-07-07T00:59:00.072Z,19.80
2018-07-07T01:01:30.767Z,18.27
2018-07-07T01:04:01.492Z,19.43
2018-07-07T01:06:31.418Z,18.30
2018-07-07T01:09:02.003Z,17.37
2018-07-07T01:11:32.611Z,16.63
2018-07-07T01:14:02.550Z,17.47
2018-07-07T01:16:33.105Z,16.80
2018-07-07T01:19:03.712Z,16.07
2018-07-07T01:21:34.370Z,17.90
2018-07-07T01:24:04.999Z,16.40
2018-07-07T01:26:35.521Z,16.80
2018-07-07T01:29:05.913Z,16.70
2018-07-07T01:31:36.872Z,16.77
2018-07-07T01:34:07.420Z,17.30
2018-07-07T01:36:38.001Z,17.47
2018-07-07T01:39:08.647Z,17.97
2018-07-07T01:41:38.620Z,18.30
2018-07-07T01:44:09.146Z,18.47
2018-07-07T01:46:39.766Z,17.87
2018-07-07T01:49:10.937Z,17.57
2018-07-07T01:51:41.633Z,18.90
2018-07-07T01:54:12.467Z,19.27
2018-07-07T01:56:42.876Z,19.53
2018-07-07T01:59:13.556Z,19.33
2018-07-07T02:01:44.129Z,21.20
2018-07-07T02:04:15.276Z,21.03
2018-07-07T02:06:45.990Z,21.03
2018-07-07T02:09:16.731Z,18.87
2018-07-07T02:11:46.838Z,19.97
2018-07-07T02:14:17.360Z,18.67
2018-07-07T02:16:47.961Z,17.63
2018-07-07T02:19:17.916Z,17.60
2018-07-07T02:21:48.231Z,18.37
2018-07-07T02:24:18.327Z,17.87
2018-07-07T02:26:48.668Z,17.43
2018-07-07T02:29:19.215Z,17.87
2018-07-07T02:31:50.137Z,17.90
2018-07-07T02:34:20.749Z,17.97
2018-07-07T02:36:51.369Z,17.90
2018-07-07T02:39:22.108Z,17.63
2018-07-07T02:41:52.179Z,17.17
2018-07-07T02:44:22.560Z,17.20
2018-07-07T02:46:53.218Z,18.57
2018-07-07T02:49:24.044Z,17.80
2018-07-07T02:51:54.991Z,18.10
2018-07-07T02:54:24.937Z,18.57
2018-07-07T02:56:55.370Z,17.80
2018-07-07T02:59:25.696Z,17.53
2018-07-07T03:01:56.127Z,17.27
2018-07-07T03:04:27.160Z,17.97
2018-07-07T03:06:57.765Z,17.57
2018-07-07T03:09:28.410Z,15.93
2018-07-07T03:11:59.043Z,17.17
2018-07-07T03:14:29.652Z,17.83
2018-07-07T03:17:00.248Z,18.10
2018-07-07T03:19:30.802Z,18.60
2018-07-07T03:22:01.446Z,18.57
2018-07-07T03:24:32.088Z,17.90
2018-07-07T03:27:03.064Z,19.00
2018-07-07T03:29:33.644Z,18.37
2018-07-07T03:32:04.235Z,20.40
2018-07-07T03:34:35.076Z,21.73
2018-07-07T03:37:05.712Z,22.00
2018-07-07T03:39:35.673Z,22.93
2018-07-07T03:42:06.173Z,22.07
2018-07-07T03:44:36.810Z,22.73
2018-07-07T03:47:07.261Z,21.13
2018-07-07T03:49:37.789Z,19.50
2018-07-07T03:52:08.576Z,19.53
2018-07-07T03:54:39.227Z,20.23
2018-07-07T03:57:09.662Z,20.13
2018-07-07T03:59:40.261Z,19.77
2018-07-07T04:02:10.915Z,22.40
2018-07-07T04:04:41.517Z,24.80
2018-07-07T04:07:12.127Z,25.87
2018-07-07T04:09:42.786Z,27.63
2018-07-07T04:12:13.371Z,28.67
2018-07-07T04:14:43.978Z,25.40
2018-07-07T04:17:14.673Z,25.70
2018-07-07T04:19:45.329Z,22.57
2018-07-07T04:22:15.854Z,20.80
2018-07-07T04:24:46.633Z,18.07
2018-07-07T04:27:17.128Z,16.57
2018-07-07T04:29:47.690Z,17.27
2018-07-07T04:32:18.403Z,17.53
2018-07-07T04:34:49.113Z,17.23
2018-07-07T04:37:19.552Z,17.87
2018-07-07T04:39:50.124Z,17.80
2018-07-07T04:42:20.692Z,16.43
2018-07-07T04:44:51.311Z,17.53
2018-07-07T04:47:21.936Z,18.30
2018-07-07T04:49:52.523Z,17.47
2018-07-07T04:52:22.945Z,17.27
2018-07-07T04:54:53.671Z,17.83
2018-07-07T04:57:24.139Z,20.47
2018-07-07T04:59:55.049Z,17.57
2018-07-07T05:02:25.950Z,18.00
2018-07-07T05:04:56.608Z,18.67
2018-07-07T05:07:27.184Z,19.50
2018-07-07T05:09:57.036Z,19.50
2018-07-07T05:12:27.901Z,20.30
2018-07-07T05:14:58.425Z,19.17
2018-07-07T05:17:29.060Z,18.83
2018-07-07T05:19:59.491Z,21.33
2018-07-07T05:22:30.000Z,22.70
2018-07-07T05:25:01.056Z,22.23
2018-07-07T05:27:31.833Z,21.87
2018-07-07T05:30:02.032Z,19.30
2018-07-07T05:32:32.423Z,20.13
2018-07-07T05:35:03.055Z,20.47
2018-07-07T05:37:33.541Z,18.57
2018-07-07T05:40:04.630Z,20.23
2018-07-07T05:42:35.123Z,18.30
2018-07-07T05:45:06.150Z,18.47
2018-07-07T05:47:37.002Z,18.60
2018-07-07T05:50:07.614Z,18.43
2018-07-07T05:52:38.258Z,20.30
2018-07-07T05:55:08.776Z,19.10
2018-07-07T05:57:39.209Z,20.80
2018-07-07T06:00:09.811Z,20.43
2018-07-07T06:02:40.689Z,20.77
2018-07-07T06:05:11.366Z,21.07
2018-07-07T06:07:41.776Z,19.10
2018-07-07T06:10:12.472Z,20.07
2018-07-07T06:12:43.021Z,20.10
2018-07-07T06:15:13.655Z,20.53
2018-07-07T06:17:44.238Z,18.50
2018-07-07T06:20:15.177Z,19.53
2018-07-07T06:22:45.809Z,18.27
2018-07-07T06:25:16.342Z,18.87
2018-07-07T06:27:46.953Z,16.57
2018-07-07T06:30:17.759Z,15.57
2018-07-07T06:32:48.386Z,14.53
2018-07-07T06:35:18.977Z,13.27
2018-07-07T06:37:48.989Z,13.03
2018-07-07T06:40:19.340Z,13.13
2018-07-07T06:42:49.892Z,13.00
2018-07-07T06:45:20.638Z,11.20
2018-07-07T06:47:51.445Z,11.17
2018-07-07T06:50:22.093Z,9.77
2018-07-07T06:52:53.306Z,9.70
2018-07-07T06:55:24.025Z,10.33
2018-07-07T06:57:55.492Z,12.70
2018-07-07T07:00:25.410Z,12.40
2018-07-07T07:02:55.818Z,13.40
2018-07-07T07:05:29.382Z,12.03
2018-07-07T07:08:00.047Z,11.00
2018-07-07T07:10:30.725Z,10.43
2018-07-07T07:13:02.262Z,9.73
2018-07-07T07:15:32.821Z,9.27
2018-07-07T07:18:03.409Z,13.00
2018-07-07T07:20:34.017Z,9.70
2018-07-07T07:23:04.581Z,9.20
2018-07-07T07:25:35.136Z,8.60
2018-07-07T07:28:05.917Z,9.40
2018-07-07T07:30:36.477Z,9.07
2018-07-07T07:33:06.569Z,8.13
2018-07-07T07:35:37.117Z,8.30
2018-07-07T07:38:07.191Z,10.17
2018-07-07T07:40:37.642Z,8.60
2018-07-07T07:43:08.402Z,8.37
2018-07-07T07:45:38.968Z,8.37
2018-07-07T07:48:09.403Z,8.53
2018-07-07T07:50:40.034Z,8.57
2018-07-07T07:53:10.880Z,8.33
2018-07-07T07:55:41.362Z,9.17
2018-07-07T07:58:11.463Z,7.57
2018-07-07T08:00:42.151Z,5.80
2018-07-07T08:03:12.919Z,6.53
2018-07-07T08:05:43.398Z,5.83
2018-07-07T08:08:13.862Z,6.00
2018-07-07T08:10:44.498Z,6.43
2018-07-07T08:13:14.982Z,6.17
2018-07-07T08:15:45.503Z,6.60
2018-07-07T08:18:16.262Z,5.70
2018-07-07T08:20:46.708Z,6.50
2018-07-07T08:23:17.320Z,6.63
2018-07-07T08:25:47.868Z,6.50
2018-07-07T08:28:18.435Z,6.90
2018-07-07T08:30:48.328Z,7.63
2018-07-07T08:33:18.767Z,7.30
2018-07-07T08:35:49.177Z,7.17
2018-07-07T08:38:19.688Z,7.60
2018-07-07T08:40:50.168Z,7.20
2018-07-07T08:43:20.819Z,7.73
2018-07-07T08:45:51.397Z,7.20
2018-07-07T08:48:21.925Z,7.13
2018-07-07T08:50:52.473Z,7.07
2018-07-07T08:53:22.955Z,7.43
2018-07-07T08:55:53.755Z,6.57
2018-07-07T08:58:24.429Z,6.60
2018-07-07T09:00:54.916Z,5.90
2018-07-07T09:03:25.337Z,6.20
2018-07-07T09:05:55.792Z,6.27
2018-07-07T09:08:26.322Z,6.77
2018-07-07T09:10:56.834Z,5.73
2018-07-07T09:13:26.735Z,6.27
2018-07-07T09:15:57.221Z,6.90
2018-07-07T09:18:27.895Z,6.33
2018-07-07T09:20:58.800Z,5.73
2018-07-07T09:23:29.336Z,5.33
2018-07-07T09:25:59.897Z,7.10
2018-07-07T09:28:30.126Z,6.90
2018-07-07T09:31:00.537Z,7.20
2018-07-07T09:33:30.367Z,6.30
2018-07-07T09:36:00.865Z,6.23
2018-07-07T09:38:31.401Z,5.40
2018-07-07T09:41:01.912Z,5.90
2018-07-07T09:43:32.442Z,4.80
2018-07-07T09:46:03.073Z,5.63
2018-07-07T09:48:33.612Z,5.63
2018-07-07T09:51:04.164Z,6.83
2018-07-07T09:53:34.691Z,5.83
2018-07-07T09:56:05.200Z,5.33
2018-07-07T09:58:35.820Z,5.77
2018-07-07T10:01:06.613Z,5.50
2018-07-07T10:03:36.841Z,6.30
2018-07-07T10:06:07.678Z,8.60
2018-07-07T10:08:38.348Z,5.73
2018-07-07T10:11:08.922Z,4.70
2018-07-07T10:13:39.575Z,5.93
2018-07-07T10:16:10.079Z,6.10
2018-07-07T10:18:40.741Z,5.40
2018-07-07T10:21:11.397Z,5.70
2018-07-07T10:23:41.870Z,5.80
2018-07-07T10:26:12.414Z,6.50
2018-07-07T10:28:43.225Z,5.23
2018-07-07T10:31:13.809Z,4.97
2018-07-07T10:33:44.269Z,5.17
2018-07-07T10:36:14.837Z,6.10
2018-07-07T10:38:45.559Z,4.40
2018-07-07T10:41:16.720Z,4.60
2018-07-07T10:43:47.529Z,4.50
2018-07-07T10:46:17.412Z,4.77
2018-07-07T10:48:54.039Z,4.50
2018-07-07T10:51:24.530Z,4.73
2018-07-07T10:53:55.276Z,4.00
2018-07-07T10:56:25.777Z,4.13
2018-07-07T10:58:56.453Z,4.27
2018-07-07T11:01:27.075Z,4.30
2018-07-07T11:03:57.661Z,4.53
2018-07-07T11:06:28.226Z,4.40
2018-07-07T11:08:59.069Z,4.33
2018-07-07T11:11:28.924Z,4.40
2018-07-07T11:13:59.422Z,4.20
2018-07-07T11:16:29.860Z,3.83
2018-07-07T11:19:00.622Z,4.43
2018-07-07T11:21:31.188Z,3.80
2018-07-07T11:24:01.159Z,4.60
2018-07-07T11:26:31.511Z,4.20
2018-07-07T11:29:02.105Z,3.77
2018-07-07T11:31:33.088Z,3.83
2018-07-07T11:34:04.152Z,4.20
2018-07-07T11:36:34.847Z,3.90
2018-07-07T11:39:06.924Z,3.53
2018-07-07T11:41:37.299Z,3.60
2018-07-07T11:44:07.840Z,3.50
2018-07-07T11:46:38.513Z,3.57
2018-07-07T11:49:09.317Z,4.27
2018-07-07T11:51:39.897Z,3.20
2018-07-07T11:54:10.557Z,3.43
2018-07-07T11:56:41.306Z,3.60
2018-07-07T11:59:11.970Z,3.50
2018-07-07T12:01:42.726Z,4.10
2018-07-07T12:04:13.379Z,3.53
2018-07-07T12:06:44.397Z,4.37
2018-07-07T12:09:14.733Z,3.20
2018-07-07T12:11:45.523Z,3.40
2018-07-07T12:14:15.568Z,3.53
2018-07-07T12:16:46.107Z,3.17
2018-07-07T12:19:16.863Z,3.90
2018-07-07T12:21:47.647Z,3.33
2018-07-07T12:24:18.432Z,3.57
2018-07-07T12:26:49.303Z,4.03
2018-07-07T12:29:20.193Z,3.83
2018-07-07T12:31:50.995Z,3.90
2018-07-07T12:34:21.688Z,3.40
2018-07-07T12:36:52.500Z,3.53
2018-07-07T12:39:23.315Z,3.80
2018-07-07T12:41:54.019Z,3.40
2018-07-07T12:44:24.731Z,5.00
2018-07-07T12:46:55.661Z,3.60
2018-07-07T12:49:26.488Z,3.73
2018-07-07T12:51:57.225Z,4.00
2018-07-07T12:54:33.922Z,3.53
2018-07-07T12:57:04.716Z,4.03
2018-07-07T12:59:35.615Z,4.47
2018-07-07T13:02:06.736Z,3.30
2018-07-07T13:04:37.270Z,4.73
2018-07-07T13:07:08.030Z,3.67
2018-07-07T13:09:39.359Z,4.50
2018-07-07T13:12:10.136Z,3.97
2018-07-07T13:14:40.878Z,3.63
2018-07-07T13:17:12.171Z,4.07
2018-07-07T13:19:42.949Z,3.00
2018-07-07T13:22:13.879Z,3.43
2018-07-07T13:24:44.411Z,3.23
2018-07-07T13:27:14.335Z,3.70
2018-07-07T13:29:44.868Z,3.60
2018-07-07T13:32:15.631Z,4.20
2018-07-07T13:34:47.132Z,3.50
2018-07-07T13:37:18.148Z,3.60
2018-07-07T13:39:49.083Z,4.10
2018-07-07T13:42:19.916Z,3.70
2018-07-07T13:44:50.460Z,3.47
2018-07-07T13:47:21.081Z,3.40
2018-07-07T13:49:51.985Z,3.27
2018-07-07T13:52:22.705Z,3.23
2018-07-07T13:54:53.445Z,3.57
2018-07-07T13:57:24.132Z,3.67
2018-07-07T13:59:54.857Z,3.60
2018-07-07T14:02:26.444Z,3.33
2018-07-07T14:04:56.940Z,3.77
2018-07-07T14:07:27.562Z,3.73
2018-07-07T14:09:57.661Z,3.60
2018-07-07T14:12:29.048Z,3.40
2018-07-07T14:14:59.634Z,3.43
2018-07-07T14:17:29.756Z,3.63
2018-07-07T14:20:00.473Z,3.50
2018-07-07T14:22:31.205Z,3.30
2018-07-07T14:25:02.563Z,3.43
2018-07-07T14:27:33.051Z,3.60
2018-07-07T14:30:03.725Z,3.47
2018-07-07T14:32:33.866Z,3.93
2018-07-07T14:35:04.571Z,3.80
2018-07-07T14:37:35.213Z,3.67
2018-07-07T14:40:05.163Z,3.90
2018-07-07T14:42:50.275Z,3.80
2018-07-07T14:45:32.118Z,3.60
2018-07-07T14:48:05.020Z,4.77
2018-07-07T14:50:36.070Z,4.27
2018-07-07T14:53:06.894Z,8.20
2018-07-07T14:55:37.847Z,6.10
2018-07-07T14:58:08.775Z,4.10
2018-07-07T15:00:39.635Z,8.27
2018-07-07T15:03:09.870Z,5.47
2018-07-07T15:05:40.695Z,4.17
2018-07-07T15:08:11.611Z,4.00
2018-07-07T15:10:42.294Z,4.93
2018-07-07T15:13:12.592Z,4.10
2018-07-07T15:15:43.225Z,3.73
2018-07-07T15:18:13.999Z,4.40
2018-07-07T15:20:44.639Z,4.60
2018-07-07T15:23:15.275Z,4.07
2018-07-07T15:25:45.406Z,4.10
2018-07-07T15:28:16.024Z,3.73
2018-07-07T15:30:45.895Z,4.23
2018-07-07T15:33:16.320Z,4.80
2018-07-07T15:35:46.891Z,5.20
2018-07-07T15:38:16.944Z,4.37
2018-07-07T15:40:47.496Z,4.07
2018-07-07T15:43:17.579Z,3.90
2018-07-07T15:45:47.876Z,4.50
2018-07-07T15:48:18.603Z,5.47
2018-07-07T15:50:49.289Z,4.43
2018-07-07T15:53:19.411Z,4.00
2018-07-07T15:55:49.860Z,4.30
2018-07-07T15:58:20.430Z,4.43
2018-07-07T16:00:51.070Z,4.77
2018-07-07T16:03:21.681Z,3.93
2018-07-07T16:05:52.169Z,4.07
2018-07-07T16:08:22.750Z,4.10
2018-07-07T16:10:53.310Z,4.20
2018-07-07T16:13:23.921Z,4.10
2018-07-07T16:15:54.069Z,4.27
2018-07-07T16:18:24.980Z,4.43
2018-07-07T16:20:55.449Z,4.60
2018-07-07T16:23:26.083Z,4.67
2018-07-07T16:25:57.058Z,4.40
2018-07-07T16:28:27.549Z,4.90
2018-07-07T16:30:58.005Z,5.30
2018-07-07T16:33:28.094Z,4.53
2018-07-07T16:35:58.704Z,4.40
2018-07-07T16:38:29.260Z,3.97
2018-07-07T16:40:59.816Z,3.83
2018-07-07T16:43:30.656Z,3.93
2018-07-07T16:46:01.671Z,3.87
2018-07-07T16:48:32.369Z,3.80
2018-07-07T16:51:03.027Z,4.00
2018-07-07T16:53:33.302Z,3.80
2018-07-07T16:56:03.962Z,4.03
2018-07-07T16:58:35.522Z,4.73
2018-07-07T17:01:06.212Z,3.63
2018-07-07T17:03:37.754Z,4.13
2018-07-07T17:06:08.534Z,10.27
2018-07-07T17:08:39.196Z,5.70
2018-07-07T17:11:09.884Z,4.17
2018-07-07T17:13:41.668Z,3.97
2018-07-07T17:16:11.673Z,4.70
2018-07-07T17:18:42.198Z,4.97
2018-07-07T17:21:12.900Z,4.27
2018-07-07T17:23:43.887Z,5.20
2018-07-07T17:26:15.427Z,4.80
2018-07-07T17:28:46.262Z,4.57
2018-07-07T17:31:17.075Z,5.50
2018-07-07T17:33:47.884Z,7.40
2018-07-07T17:36:20.079Z,7.10
2018-07-07T17:38:50.795Z,9.70
2018-07-07T17:41:21.698Z,9.10
2018-07-07T17:43:52.752Z,9.60
2018-07-07T17:46:23.465Z,9.47
2018-07-07T17:48:53.398Z,9.80
2018-07-07T17:51:24.060Z,9.07
2018-07-07T17:53:54.685Z,10.33
2018-07-07T17:56:25.636Z,10.93
2018-07-07T17:58:56.597Z,11.23
2018-07-07T18:01:27.589Z,10.20
2018-07-07T18:03:58.446Z,9.77
2018-07-07T18:06:31.710Z,9.03
2018-07-07T18:09:02.182Z,8.80
2018-07-07T18:11:35.895Z,9.50
2018-07-07T18:14:07.018Z,8.07
2018-07-07T18:16:37.924Z,8.27
2018-07-07T18:19:08.513Z,8.20
2018-07-07T18:21:38.924Z,8.23
2018-07-07T18:24:09.489Z,8.57
2018-07-07T18:26:40.263Z,7.80
2018-07-07T18:29:10.971Z,7.27
2018-07-07T18:31:41.646Z,9.00
2018-07-07T18:34:12.107Z,8.83
2018-07-07T18:36:42.701Z,8.67
2018-07-07T18:39:13.192Z,8.97
2018-07-07T18:41:43.736Z,8.63
2018-07-07T18:44:14.624Z,8.07
2018-07-07T18:46:45.128Z,7.70
2018-07-07T18:49:15.541Z,7.73
2018-07-07T18:51:45.503Z,10.17
2018-07-07T18:54:16.059Z,12.30
2018-07-07T18:56:46.794Z,16.10
2018-07-07T18:59:17.387Z,18.07
2018-07-07T19:01:47.925Z,17.00
2018-07-07T19:04:18.537Z,17.77
2018-07-07T19:06:49.264Z,13.87
2018-07-07T19:09:19.846Z,10.20
2018-07-07T19:11:50.661Z,8.53
2018-07-07T19:14:21.437Z,9.33
2018-07-07T19:16:52.237Z,10.10
2018-07-07T19:19:22.787Z,10.47
2018-07-07T19:21:58.284Z,9.83
2018-07-07T19:24:34.063Z,9.30
2018-07-07T19:27:06.378Z,10.30
2018-07-07T19:29:36.791Z,10.63
2018-07-07T19:32:12.605Z,29.30
2018-07-07T19:34:48.154Z,49.63
2018-07-07T19:37:21.065Z,26.20
2018-07-07T19:39:51.639Z,18.43
2018-07-07T19:42:22.143Z,32.63
2018-07-07T19:44:52.696Z,37.90
2018-07-07T19:47:23.308Z,27.90
2018-07-07T19:49:53.820Z,18.67
2018-07-07T19:52:24.411Z,11.90
2018-07-07T19:54:54.943Z,11.10
2018-07-07T19:57:25.685Z,10.30
2018-07-07T19:59:56.286Z,10.00
2018-07-07T20:02:26.888Z,9.57
2018-07-07T20:04:57.358Z,10.13
2018-07-07T20:07:27.934Z,9.70
2018-07-07T20:09:58.807Z,9.33
2018-07-07T20:12:29.363Z,9.50
2018-07-07T20:15:00.260Z,9.37
2018-07-07T20:17:41.421Z,10.20
2018-07-07T20:21:51.146Z,10.90
2018-07-07T20:24:25.184Z,12.37
2018-07-07T20:27:00.596Z,15.17
2018-07-07T20:29:31.278Z,13.67
2018-07-07T20:32:01.789Z,15.10
2018-07-07T20:34:32.690Z,13.43
2018-07-07T20:37:03.330Z,13.80
2018-07-07T20:39:33.976Z,12.73
2018-07-07T20:42:04.496Z,11.40
2018-07-07T20:44:35.078Z,10.07
2018-07-07T20:47:05.873Z,10.03
2018-07-07T20:49:36.509Z,9.57
2018-07-07T20:52:07.020Z,9.93
2018-07-07T20:54:37.678Z,8.80
2018-07-07T20:57:08.414Z,9.03
2018-07-07T20:59:39.236Z,9.73
2018-07-07T21:02:09.870Z,9.47
2018-07-07T21:04:40.822Z,8.60
2018-07-07T21:07:11.447Z,8.87
2018-07-07T21:09:41.321Z,8.50
2018-07-07T21:12:11.681Z,7.97
2018-07-07T21:14:45.577Z,7.90
2018-07-07T21:17:16.626Z,8.20
2018-07-07T21:19:47.775Z,8.03
2018-07-07T21:22:18.335Z,7.83
2018-07-07T21:24:48.394Z,8.03
2018-07-07T21:27:18.542Z,7.90
2018-07-07T21:29:49.047Z,7.83
2018-07-07T21:32:19.728Z,8.13
2018-07-07T21:34:50.330Z,9.67
2018-07-07T21:37:20.916Z,14.63
2018-07-07T21:39:51.557Z,18.03
2018-07-07T21:42:22.056Z,22.13
2018-07-07T21:44:52.930Z,21.43
2018-07-07T21:47:23.562Z,20.23
2018-07-07T21:49:54.053Z,19.67
2018-07-07T21:52:24.530Z,17.10
2018-07-07T21:54:54.648Z,14.97
2018-07-07T21:57:30.491Z,13.23
2018-07-07T22:00:01.055Z,12.33
2018-07-07T22:02:36.398Z,9.83
2018-07-07T22:05:12.208Z,9.43
2018-07-07T22:07:42.822Z,9.37
2018-07-07T22:10:13.446Z,9.17
2018-07-07T22:12:44.279Z,8.77
2018-07-07T22:15:15.011Z,10.20
2018-07-07T22:17:45.830Z,9.40
2018-07-07T22:20:37.736Z,9.30
2018-07-07T22:23:08.262Z,9.13
2018-07-07T22:25:38.923Z,8.33
2018-07-07T22:28:09.753Z,8.90
2018-07-07T22:30:40.264Z,9.57
2018-07-07T22:33:15.965Z,10.00
2018-07-07T22:35:51.346Z,9.00
2018-07-07T22:38:26.844Z,9.07
2018-07-07T22:40:57.624Z,9.53
2018-07-07T22:43:28.323Z,9.90
2018-07-07T22:46:00.058Z,10.10
2018-07-07T22:48:30.712Z,10.70
2018-07-07T22:51:01.131Z,10.47
2018-07-07T22:53:31.711Z,10.40
2018-07-07T22:56:02.356Z,10.73
2018-07-07T22:58:32.879Z,10.10
2018-07-07T23:01:03.364Z,10.60
2018-07-07T23:03:33.893Z,11.10
2018-07-07T23:06:04.585Z,10.83
2018-07-07T23:08:35.064Z,10.73
2018-07-07T23:11:05.198Z,10.13
2018-07-07T23:13:35.695Z,10.33
2018-07-07T23:16:06.203Z,10.40
2018-07-07T23:18:36.981Z,10.77
2018-07-07T23:21:07.865Z,10.90
2018-07-07T23:23:38.472Z,11.77
2018-07-07T23:26:09.171Z,10.93
2018-07-07T23:28:39.748Z,11.17
2018-07-07T23:31:10.328Z,11.27
2018-07-07T23:33:41.162Z,11.53
2018-07-07T23:36:11.678Z,12.07
2018-07-07T23:38:42.542Z,12.47
2018-07-07T23:41:13.456Z,12.20
2018-07-07T23:43:43.379Z,12.70
2018-07-07T23:46:13.816Z,12.10
2018-07-07T23:48:44.418Z,12.33
2018-07-07T23:51:15.027Z,12.17
2018-07-07T23:53:45.455Z,11.70
2018-07-07T23:56:15.982Z,12.67
2018-07-07T23:58:47.045Z,11.87
